Magrathea — 2CSP2 — position and weather

sailwx.info

Track history (hours):
 
Tides and Currents Weather Stations Pressure Air Temp Water Temp Dewpoint Dewpoint Depression Visibility Wind Speed Wind Dir Waves Ship Positions

Magrathea

Last reported at 2017-Oct-10 16:32 UTC. Time now 2017-Oct-19 23:33 UTC.
Position N 39°16' W 076°36'.
Warning: this ship's position is 9 days out of date.

Length 22 m.

Type: Sailing vessel. MMSI: 235075418.

Date/timePositionNaut miles runAvg speedWind from/ knotsBaromVisibWave heightAir tempDewpointWater temp
2017-Oct-10 16:32N 39°16' W 076°36'1 2.3
2017-Oct-10 16:11N 39°15' W 076°35'7 8.2
2017-Oct-10 15:22N 39°11' W 076°28'11 7.8
2017-Oct-10 14:00N 39°01' W 076°23'4 7.5
2017-Oct-10 13:30N 38°58' W 076°25'3 5.7
2017-Oct-10 13:00N 38°58' W 076°29'0 0.1
2017-Oct-10 12:30N 38°58' W 076°29'  
2017-Oct-04 14:30N 38°58' W 076°29'0 0.3
2017-Oct-04 13:29N 38°59' W 076°29'2 4.7
2017-Oct-04 13:00N 38°58' W 076°26'  
Track history (hours):
 
Tides and Currents Weather Stations Pressure Air Temp Water Temp Dewpoint Dewpoint Depression Visibility Wind Speed Wind Dir Waves Ship Positions

Magrathea

Last reported at 2017-Oct-10 16:32 UTC. Time now 2017-Oct-19 23:33 UTC.
Position N 39°16' W 076°36'.
Warning: this ship's position is 9 days out of date.

Length 22 m.

Type: Sailing vessel. MMSI: 235075418.

Date/timePositionNaut miles runAvg speedWind from/ knotsBaromVisibWave heightAir tempDewpointWater temp
2017-Oct-10 16:32N 39°16' W 076°36'1 2.3
2017-Oct-10 16:11N 39°15' W 076°35'7 8.2
2017-Oct-10 15:22N 39°11' W 076°28'11 7.8
2017-Oct-10 14:00N 39°01' W 076°23'4 7.5
2017-Oct-10 13:30N 38°58' W 076°25'3 5.7
2017-Oct-10 13:00N 38°58' W 076°29'0 0.1
2017-Oct-10 12:30N 38°58' W 076°29'  
2017-Oct-04 14:30N 38°58' W 076°29'0 0.3
2017-Oct-04 13:29N 38°59' W 076°29'2 4.7
2017-Oct-04 13:00N 38°58' W 076°26'  

Dump ship's entire track history